AYPY/POM METAR and TAF weather

Enter ICAO airport designator
Station Type Date Time Source
AYPY METAR 2020/11/27 02:00 UTC NOAA

AYPY 270200Z 19010KT 9999 HZ SCT035 SCT050 30/22 Q1008


Station Type Date Time Source
AYPY Decoded METAR 2020/11/27 02:00 UTC NOAA

Moresby, Papua New Guinea (AYPY) 09-26S 147-13E 49M
Nov 26, 2020 - 09:00 PM EST / 2020.11.27 0200 UTC
Wind: from the S (190 degrees) at 12 MPH (10 KT):0
Visibility: greater than 7 mile(s):0
Sky conditions: partly cloudy
Weather: haze
Temperature: 86 F (30 C)
Heat index: 91.8 F (33.2 C):1
Dew Point: 71 F (22 C)
Relative Humidity: 62%
Pressure (altimeter): 29.77 in. Hg (1008 hPa)
ob: AYPY 270200Z 19010KT 9999 HZ SCT035 SCT050 30/22 Q1008
cycle: 2

Station Type Date Time Source
AYPY TAF 2020/11/26 18:24 UTC NOAA

TAF TAF AYPY 261630Z 2618/2718 32005KT 9999 SCT035 SCT140 PROB30 2619/2621 00000KT 9999 FG

Example: see airport list